createdAt,value
2018-10-09T00:01:49.468Z,6.10
2018-10-09T00:06:53.476Z,9.97
2018-10-09T00:11:57.476Z,8.00
2018-10-09T00:17:01.544Z,9.23
2018-10-09T00:22:05.564Z,8.40
2018-10-09T00:27:09.578Z,8.27
2018-10-09T00:32:13.563Z,7.13
2018-10-09T00:37:17.580Z,7.70
2018-10-09T00:42:21.587Z,4.30
2018-10-09T00:47:25.677Z,5.80
2018-10-09T00:52:29.819Z,9.47
2018-10-09T00:57:33.856Z,8.50
2018-10-09T01:02:37.863Z,11.23
2018-10-09T01:07:41.863Z,8.67
2018-10-09T01:12:45.873Z,13.40
2018-10-09T01:17:49.868Z,10.60
2018-10-09T01:22:53.872Z,7.60
2018-10-09T01:27:57.886Z,10.63
2018-10-09T01:33:02.497Z,12.53
2018-10-09T01:38:06.512Z,6.70
2018-10-09T01:43:10.508Z,4.97
2018-10-09T01:48:14.507Z,5.07
2018-10-09T01:53:18.487Z,9.33
2018-10-09T01:58:22.511Z,10.57
2018-10-09T02:03:26.535Z,17.60
2018-10-09T02:08:30.539Z,8.27
2018-10-09T02:13:34.632Z,10.07
2018-10-09T02:18:38.631Z,15.13
2018-10-09T02:23:42.623Z,11.80
2018-10-09T02:28:46.628Z,10.83
2018-10-09T02:33:50.634Z,12.10
2018-10-09T02:38:54.649Z,16.20
2018-10-09T02:43:58.600Z,18.73
2018-10-09T02:49:02.581Z,19.00
2018-10-09T02:54:06.887Z,21.20
2018-10-09T02:59:10.908Z,23.53
2018-10-09T03:04:14.952Z,22.20
2018-10-09T03:09:18.965Z,11.53
2018-10-09T03:14:22.945Z,12.67
2018-10-09T03:19:26.913Z,13.50
2018-10-09T03:24:30.928Z,11.23
2018-10-09T03:29:34.952Z,8.20
2018-10-09T03:34:38.976Z,11.17
2018-10-09T03:39:42.973Z,7.23
2018-10-09T03:44:46.956Z,20.07
2018-10-09T03:49:51.068Z,10.27
2018-10-09T03:54:55.086Z,9.63
2018-10-09T03:59:59.137Z,15.93
2018-10-09T04:05:03.111Z,15.77
2018-10-09T04:10:07.956Z,16.73
2018-10-09T04:15:11.959Z,20.03
2018-10-09T04:20:15.972Z,18.33
2018-10-09T04:25:19.984Z,9.70
2018-10-09T04:30:23.988Z,16.00
2018-10-09T04:35:28.062Z,10.00
2018-10-09T04:40:32.059Z,12.07
2018-10-09T04:45:36.086Z,10.37
2018-10-09T04:50:40.108Z,10.60
2018-10-09T04:55:44.128Z,16.00
2018-10-09T05:00:48.156Z,9.63
2018-10-09T05:05:52.152Z,17.07
2018-10-09T05:10:56.146Z,7.07
2018-10-09T05:16:01.264Z,7.37
2018-10-09T05:21:05.264Z,5.63
2018-10-09T05:26:09.336Z,8.60
2018-10-09T05:31:13.462Z,5.73
2018-10-09T05:36:17.432Z,7.73
2018-10-09T05:41:21.432Z,9.90
2018-10-09T05:46:25.471Z,5.90
2018-10-09T05:51:29.482Z,8.07
2018-10-09T05:56:33.522Z,10.33
2018-10-09T06:01:37.522Z,8.37
2018-10-09T06:06:41.539Z,10.10
2018-10-09T06:11:45.568Z,6.90
2018-10-09T06:16:49.591Z,6.17
2018-10-09T06:21:53.576Z,17.50
2018-10-09T06:26:57.567Z,15.47
2018-10-09T06:32:01.640Z,13.03
2018-10-09T06:37:05.794Z,22.43
2018-10-09T06:42:09.775Z,22.07
2018-10-09T06:47:13.866Z,18.93
2018-10-09T06:52:17.856Z,11.87
2018-10-09T06:57:21.875Z,12.97
2018-10-09T07:02:25.895Z,13.97
2018-10-09T07:07:29.976Z,9.80
2018-10-09T07:12:33.979Z,7.70
2018-10-09T07:17:38.022Z,9.93
2018-10-09T07:22:42.037Z,9.77
2018-10-09T07:27:46.034Z,9.27
2018-10-09T07:32:50.042Z,9.53
2018-10-09T07:37:54.076Z,15.60
2018-10-09T07:42:58.135Z,7.77
2018-10-09T07:48:02.203Z,9.77
2018-10-09T07:53:06.255Z,9.87
2018-10-09T07:58:10.380Z,12.83
2018-10-09T08:03:14.428Z,13.37
2018-10-09T08:08:18.473Z,20.93
2018-10-09T08:13:22.497Z,21.77
2018-10-09T08:18:26.524Z,19.50
2018-10-09T08:23:30.600Z,16.07
2018-10-09T08:28:34.604Z,20.67
2018-10-09T08:33:38.628Z,20.63
2018-10-09T08:38:42.668Z,17.67
2018-10-09T08:43:46.685Z,18.67
2018-10-09T08:48:50.707Z,24.40
2018-10-09T08:53:54.723Z,22.87
2018-10-09T08:58:58.755Z,19.63
2018-10-09T09:04:02.814Z,18.47
2018-10-09T09:09:08.868Z,26.20
2018-10-09T09:14:12.874Z,25.07
2018-10-09T09:19:16.945Z,20.83
2018-10-09T09:24:20.956Z,29.30
2018-10-09T09:29:25.133Z,25.23
2018-10-09T09:34:29.292Z,20.40
2018-10-09T09:39:33.430Z,21.00
2018-10-09T09:44:37.553Z,22.47
2018-10-09T09:49:41.598Z,17.20
2018-10-09T09:54:45.637Z,27.73
2018-10-09T09:59:49.724Z,23.57
2018-10-09T10:04:53.779Z,24.80
2018-10-09T10:09:57.889Z,18.57
2018-10-09T10:15:01.974Z,24.20
2018-10-09T10:20:06.064Z,17.37
2018-10-09T10:25:10.151Z,22.93
2018-10-09T10:30:14.233Z,20.80
2018-10-09T10:35:18.769Z,19.57
2018-10-09T10:40:22.988Z,18.67
2018-10-09T10:45:27.130Z,11.23
2018-10-09T10:50:31.240Z,19.47
2018-10-09T10:55:35.267Z,22.13
2018-10-09T11:00:39.333Z,21.90
2018-10-09T11:05:43.427Z,17.47
2018-10-09T11:10:47.460Z,18.03
2018-10-09T11:15:51.530Z,18.03
2018-10-09T11:20:55.604Z,18.63
2018-10-09T11:25:59.660Z,16.37
2018-10-09T11:31:03.728Z,15.83
2018-10-09T11:36:07.851Z,19.77
2018-10-09T11:41:11.941Z,21.53
2018-10-09T11:46:15.965Z,19.30
2018-10-09T11:51:20.669Z,19.93
2018-10-09T11:56:24.720Z,15.90
2018-10-09T12:01:28.803Z,12.97
2018-10-09T12:06:32.931Z,19.73
2018-10-09T12:11:36.971Z,11.97
2018-10-09T12:16:41.251Z,8.37
2018-10-09T12:21:45.411Z,19.07
2018-10-09T12:26:49.446Z,22.50
2018-10-09T12:31:53.516Z,15.40
2018-10-09T12:36:57.586Z,16.83
2018-10-09T12:42:01.667Z,16.03
2018-10-09T12:47:05.760Z,9.47
2018-10-09T12:52:09.773Z,7.17
2018-10-09T12:57:13.926Z,7.37
2018-10-09T13:02:18.010Z,15.03
2018-10-09T13:07:22.060Z,9.43
2018-10-09T13:12:26.107Z,12.27
2018-10-09T13:17:30.223Z,8.03
2018-10-09T13:22:34.538Z,12.57
2018-10-09T13:27:38.312Z,14.30
2018-10-09T13:32:42.382Z,13.53
2018-10-09T13:37:46.443Z,7.70
2018-10-09T13:42:50.503Z,8.23
2018-10-09T13:47:54.574Z,8.80
2018-10-09T13:52:58.716Z,9.13
2018-10-09T13:58:02.866Z,6.87
2018-10-09T14:03:07.122Z,12.40
2018-10-09T14:08:12.026Z,6.70
2018-10-09T14:13:16.076Z,12.37
2018-10-09T14:18:20.119Z,10.30
2018-10-09T14:23:24.243Z,13.93
2018-10-09T14:28:28.324Z,11.73
2018-10-09T14:33:32.374Z,15.23
2018-10-09T14:38:36.484Z,14.67
2018-10-09T14:43:40.636Z,12.63
2018-10-09T14:48:44.691Z,11.60
2018-10-09T14:53:48.712Z,10.87
2018-10-09T14:58:52.759Z,6.63
2018-10-09T15:03:56.808Z,12.40
2018-10-09T15:09:00.880Z,12.27
2018-10-09T15:14:05.230Z,12.43
2018-10-09T15:19:09.381Z,10.93
2018-10-09T15:24:13.521Z,10.70
2018-10-09T15:29:17.600Z,9.10
2018-10-09T15:34:21.624Z,12.23
2018-10-09T15:39:25.691Z,9.63
2018-10-09T15:44:29.795Z,9.67
2018-10-09T15:49:33.800Z,7.80
2018-10-09T15:54:37.826Z,10.27
2018-10-09T15:59:41.875Z,7.30
2018-10-09T16:04:45.919Z,8.47
2018-10-09T16:09:49.972Z,9.63
2018-10-09T16:14:54.032Z,13.43
2018-10-09T16:19:58.098Z,13.37
2018-10-09T16:25:02.201Z,11.63
2018-10-09T16:30:06.304Z,9.90
2018-10-09T16:35:10.396Z,11.33
2018-10-09T16:40:14.645Z,6.20
2018-10-09T16:45:18.718Z,4.20
2018-10-09T16:50:22.777Z,10.10
2018-10-09T16:55:27.412Z,9.33
2018-10-09T17:00:31.645Z,9.10
2018-10-09T17:05:36.122Z,6.37
2018-10-09T17:10:40.204Z,8.07
2018-10-09T17:15:47.455Z,6.27
2018-10-09T17:20:51.639Z,6.83
2018-10-09T17:25:55.748Z,7.83
2018-10-09T17:30:59.931Z,7.40
2018-10-09T17:36:03.979Z,9.50
2018-10-09T17:41:08.113Z,11.83
2018-10-09T17:46:12.217Z,7.80
2018-10-09T17:51:16.365Z,8.17
2018-10-09T17:56:20.469Z,6.80
2018-10-09T18:01:24.578Z,8.00
2018-10-09T18:06:28.659Z,6.53
2018-10-09T18:11:32.718Z,8.90
2018-10-09T18:16:36.838Z,9.60
2018-10-09T18:21:40.947Z,7.20
2018-10-09T18:26:45.003Z,7.17
2018-10-09T18:31:49.087Z,7.73
2018-10-09T18:36:53.196Z,10.60
2018-10-09T18:41:57.252Z,10.17
2018-10-09T18:47:01.390Z,6.93
2018-10-09T18:52:05.668Z,11.67
2018-10-09T18:57:09.752Z,7.63
2018-10-09T19:02:13.872Z,9.90
2018-10-09T19:07:18.383Z,8.27
2018-10-09T19:12:22.471Z,9.17
2018-10-09T19:17:26.697Z,10.73
2018-10-09T19:22:30.964Z,7.87
2018-10-09T19:27:35.458Z,6.80
2018-10-09T19:32:39.605Z,6.60
2018-10-09T19:37:43.683Z,8.97
2018-10-09T19:42:48.146Z,10.60
2018-10-09T19:47:52.224Z,7.00
2018-10-09T19:52:57.216Z,8.10
2018-10-09T19:58:01.303Z,9.10
2018-10-09T20:03:05.393Z,7.13
2018-10-09T20:08:09.756Z,8.13
2018-10-09T20:13:14.198Z,7.00
2018-10-09T20:18:18.561Z,7.30
2018-10-09T20:23:22.792Z,6.43
2018-10-09T20:28:26.949Z,8.17
2018-10-09T20:33:31.611Z,8.73
2018-10-09T20:38:36.134Z,7.50
2018-10-09T20:43:40.310Z,7.47
2018-10-09T20:48:44.551Z,8.00
2018-10-09T20:53:48.648Z,12.43
2018-10-09T20:58:52.690Z,8.17
2018-10-09T21:03:56.760Z,11.33
2018-10-09T21:09:00.880Z,10.30
2018-10-09T21:14:05.608Z,10.37
2018-10-09T21:19:09.721Z,7.73
2018-10-09T21:24:13.727Z,9.23
2018-10-09T21:29:17.903Z,8.13
2018-10-09T21:34:21.956Z,9.00
2018-10-09T21:39:26.058Z,10.07
2018-10-09T21:44:30.139Z,7.77
2018-10-09T21:49:39.812Z,11.00
2018-10-09T21:54:49.180Z,9.53
2018-10-09T21:59:58.772Z,9.03
2018-10-09T22:05:08.983Z,8.87
2018-10-09T22:10:18.472Z,8.83
2018-10-09T22:15:27.812Z,8.30
2018-10-09T22:20:37.460Z,8.47
2018-10-09T22:25:47.191Z,9.87
2018-10-09T22:30:56.798Z,8.73
2018-10-09T22:36:06.486Z,8.23
2018-10-09T22:41:17.467Z,8.77
2018-10-09T22:46:27.082Z,10.20
2018-10-09T22:51:36.516Z,7.93
2018-10-09T22:56:45.930Z,8.27
2018-10-09T23:01:55.422Z,10.20
2018-10-09T23:07:05.316Z,9.97
2018-10-09T23:12:14.895Z,13.03
2018-10-09T23:17:24.606Z,10.87
2018-10-09T23:22:34.324Z,9.10
2018-10-09T23:27:43.703Z,10.30
2018-10-09T23:32:53.225Z,8.73
2018-10-09T23:38:02.582Z,10.47
2018-10-09T23:43:12.514Z,8.73
2018-10-09T23:48:21.952Z,10.23
2018-10-09T23:53:31.323Z,11.37
2018-10-09T23:58:40.731Z,10.70
